Parkland, Pennsylvania
Current Conditions -  °F | °C
As of 6:22 PM on Wednesday 26 Nov 2014 (Local Time) from KPNE Reporting Station
Freezing Rain Freezing Rain  
Wind Chill: 27°   Ceiling: 2500
Heat Index: 36°   Visibility: 3mi
Dew Point: 31°   Wind: 14mph
Humidity: 82%   Direction: 330°NNW
Pressure: 29.87"   Gusts: NA
Location:  40.1816°N, 74.9144°W
Report Text: KPNE 262322Z 33012KT 3SM -FZRA FEW008 SCT018 OVC025 02/M01 A2987 RMK AO2 RAE22FZRAB22 P0002 I1000 T00221006
Loading
Personal Weather Stations






























Interactive Weather Map New forecast layout! Learn more

10-Day Weather Forecast

Advertisements
Track Severe Weather on mobile